Time;durP1;ratioP1;P1;durP2;ratioP2;P2;SDS_P1;SDS_P2;PMS_P1;PMS_P2;Temp;Humidity;BMP_temperature;BMP_pressure;BME280_temperature;BME280_humidity;BME280_pressure;Samples;Min_cycle;Max_cycle;Signal;HPM_P1;HPM_P2
2022/01/22 00:01:43;;;;;;;14.97;3.40;;;1.00;99.90;;;;;;6253516;23;20000;-89
2022/01/22 00:04:09;;;;;;;6.53;2.83;;;1.20;99.90;;;;;;6226753;23;20116;-88
2022/01/22 00:06:35;;;;;;;7.37;3.17;;;1.00;99.90;;;;;;6251302;23;20744;-89
2022/01/22 00:09:02;;;;;;;10.40;3.63;;;1.10;99.90;;;;;;6252604;23;19996;-88
2022/01/22 00:11:34;;;;;;;9.33;3.43;;;1.10;99.90;;;;;;6253101;23;20031;-89
2022/01/22 00:16:44;;;;;;;8.57;2.97;;;1.10;99.90;;;;;;6253416;23;20016;-89
2022/01/22 00:19:10;;;;;;;8.77;3.10;;;1.10;99.90;;;;;;6253665;23;20075;-89
2022/01/22 00:21:36;;;;;;;12.63;3.57;;;1.10;99.90;;;;;;6251004;23;20350;-89
2022/01/22 00:24:03;;;;;;;10.07;3.57;;;1.10;99.90;;;;;;6248861;23;20087;-89
2022/01/22 00:26:29;;;;;;;7.00;3.10;;;1.10;99.90;;;;;;6252353;23;20035;-87
2022/01/22 00:28:55;;;;;;;6.37;2.60;;;1.10;99.90;;;;;;6250897;23;20007;-89
2022/01/22 00:31:23;;;;;;;10.97;3.77;;;1.10;99.90;;;;;;6251946;23;20766;-89
2022/01/22 00:33:48;;;;;;;9.33;3.57;;;1.20;99.90;;;;;;6252700;23;19996;-89
2022/01/22 00:36:14;;;;;;;8.47;3.83;;;1.10;99.90;;;;;;6254277;23;20312;-89
2022/01/22 00:38:40;;;;;;;7.80;2.93;;;1.20;99.90;;;;;;6251482;23;20461;-89
2022/01/22 00:41:08;;;;;;;8.13;2.90;;;1.20;99.90;;;;;;6252109;23;20007;-89
2022/01/22 00:43:34;;;;;;;8.57;3.30;;;1.20;99.90;;;;;;6254701;23;20049;-89
2022/01/22 00:45:59;;;;;;;8.07;2.97;;;1.20;99.90;;;;;;6251985;23;20039;-88
2022/01/22 00:48:25;;;;;;;8.40;3.10;;;1.20;99.90;;;;;;6251308;23;20000;-89
2022/01/22 00:50:55;;;;;;;12.47;3.90;;;1.20;99.90;;;;;;6251819;23;20071;-88
2022/01/22 00:53:21;;;;;;;12.40;3.00;;;1.20;99.90;;;;;;6250925;23;20466;-89
2022/01/22 00:55:46;;;;;;;7.93;2.67;;;1.20;99.90;;;;;;6250633;23;20004;-90
2022/01/22 00:58:12;;;;;;;8.67;3.27;;;1.20;99.90;;;;;;6250092;23;20465;-89
2022/01/22 01:00:38;;;;;;;8.80;2.80;;;1.20;99.90;;;;;;6246138;23;19996;-88
2022/01/22 01:03:03;;;;;;;14.57;3.80;;;1.20;99.90;;;;;;6246964;23;20070;-89
2022/01/22 01:05:29;;;;;;;8.70;3.07;;;1.20;99.90;;;;;;6249591;23;20023;-88
2022/01/22 01:07:55;;;;;;;10.73;3.17;;;1.20;99.90;;;;;;6254770;23;20456;-89
2022/01/22 01:10:22;;;;;;;8.93;3.03;;;1.40;99.90;;;;;;6255890;23;19996;-89
2022/01/22 01:12:49;;;;;;;8.87;2.83;;;1.20;99.90;;;;;;6255652;23;19996;-88
2022/01/22 01:34:22;;;;;;;10.30;2.70;;;1.30;99.90;;;;;;6253422;23;20061;-88
2022/01/22 01:36:48;;;;;;;8.90;3.37;;;1.40;99.90;;;;;;6256574;23;20071;-89
2022/01/22 01:39:21;;;;;;;9.60;3.17;;;1.40;99.90;;;;;;6254394;23;20004;-89
2022/01/22 01:44:14;;;;;;;6.73;2.73;;;1.40;99.90;;;;;;6256006;23;20004;-88
2022/01/22 01:46:53;;;;;;;7.13;3.03;;;1.40;99.90;;;;;;6253539;23;20403;-89
2022/01/22 01:49:20;;;;;;;9.17;2.60;;;1.40;99.90;;;;;;6253471;23;20091;-88
2022/01/22 01:51:46;;;;;;;8.60;3.30;;;1.50;99.90;;;;;;6228713;23;20000;-89
2022/01/22 01:59:46;;;;;;;8.73;3.67;;;1.50;99.90;;;;;;6254959;23;20011;-89
2022/01/22 02:02:12;;;;;;;12.50;4.53;;;1.50;99.90;;;;;;6254457;23;20008;-89
2022/01/22 02:04:41;;;;;;;12.73;5.40;;;1.40;99.90;;;;;;6255564;23;20008;-90
2022/01/22 02:07:07;;;;;;;16.27;5.07;;;1.70;99.90;;;;;;6256078;23;20098;-89
2022/01/22 02:09:37;;;;;;;14.47;5.33;;;1.60;99.90;;;;;;6253245;23;19996;-89
2022/01/22 02:25:48;;;;;;;9.60;4.23;;;1.70;99.90;;;;;;6254835;23;20011;-89
2022/01/22 02:28:14;;;;;;;9.13;3.50;;;1.70;99.90;;;;;;6254081;23;20359;-90
2022/01/22 02:30:48;;;;;;;12.00;3.73;;;1.70;99.90;;;;;;6254007;23;20000;-89
2022/01/22 02:36:58;;;;;;;7.37;3.30;;;1.70;99.90;;;;;;6289354;22;20003;-89
2022/01/22 02:39:11;;;;;;;7.87;3.73;;;1.70;99.90;;;;;;6270376;22;20023;-89
2022/01/22 02:41:43;;;;;;;8.80;3.57;;;1.70;99.90;;;;;;6279070;22;20381;-90
2022/01/22 02:44:14;;;;;;;8.80;3.30;;;1.80;99.90;;;;;;6277022;22;20011;-90
2022/01/22 02:46:48;;;;;;;9.87;3.63;;;1.70;99.90;;;;;;6278879;22;20068;-89
2022/01/22 02:49:20;;;;;;;11.53;3.97;;;1.70;99.90;;;;;;6281688;22;20011;-88
2022/01/22 02:51:46;;;;;;;12.88;3.33;;;1.80;99.90;;;;;;6281478;22;20008;-89
2022/01/22 02:54:14;;;;;;;6.70;3.60;;;1.90;99.90;;;;;;6281086;22;20303;-89
2022/01/22 02:56:42;;;;;;;8.27;2.97;;;1.80;99.90;;;;;;6277719;22;20438;-89
2022/01/22 02:59:20;;;;;;;9.73;3.63;;;1.80;99.90;;;;;;6278123;22;20008;-89
2022/01/22 03:01:53;;;;;;;8.03;3.67;;;1.90;99.90;;;;;;6276006;22;20012;-89
2022/01/22 03:04:30;;;;;;;8.43;3.47;;;1.80;99.90;;;;;;6277767;22;20014;-89
2022/01/22 03:07:19;;;;;;;9.87;3.70;;;1.70;99.90;;;;;;6276925;22;20009;-89
2022/01/22 03:09:52;;;;;;;10.23;3.60;;;1.80;99.90;;;;;;6273621;22;20557;-89
2022/01/22 03:18:18;;;;;;;6.60;3.23;;;1.80;99.90;;;;;;6277147;22;20113;-89
2022/01/22 03:29:07;;;;;;;7.83;3.27;;;1.80;99.90;;;;;;6277444;22;20031;-89
2022/01/22 03:31:41;;;;;;;8.30;3.70;;;1.80;99.90;;;;;;6276354;22;20000;-90
2022/01/22 03:34:21;;;;;;;9.30;3.40;;;1.80;99.90;;;;;;6276176;22;20508;-88
2022/01/22 03:36:47;;;;;;;7.63;3.50;;;1.80;99.90;;;;;;6275684;22;20011;-89
2022/01/22 03:39:17;;;;;;;6.23;3.30;;;1.80;99.90;;;;;;6275404;22;19999;-88
2022/01/22 03:41:47;;;;;;;9.73;4.10;;;1.80;99.90;;;;;;6277557;22;20133;-88
2022/01/22 03:44:15;;;;;;;6.60;2.87;;;1.80;99.90;;;;;;6275779;22;20327;-88
2022/01/22 03:49:39;;;;;;;10.73;3.53;;;1.80;99.90;;;;;;6277584;22;20027;-88
2022/01/22 03:52:08;;;;;;;11.23;3.40;;;1.80;99.90;;;;;;6275839;22;20000;-88
2022/01/22 03:54:37;;;;;;;7.37;3.53;;;1.80;99.90;;;;;;6276514;22;19996;-90
2022/01/22 03:57:26;;;;;;;9.53;3.27;;;1.90;99.90;;;;;;6276169;22;20133;-89
2022/01/22 04:00:14;;;;;;;8.33;3.07;;;1.80;99.90;;;;;;6276029;22;20031;-89
2022/01/22 04:05:29;;;;;;;9.47;3.60;;;1.80;99.90;;;;;;6277437;22;20007;-90
2022/01/22 04:08:11;;;;;;;7.67;3.73;;;1.80;99.90;;;;;;6272244;22;20270;-88
2022/01/22 04:10:47;;;;;;;7.10;3.25;;;1.80;99.90;;;;;;6275238;22;20004;-89
2022/01/22 04:13:16;;;;;;;9.70;3.60;;;1.80;99.90;;;;;;6282523;22;20007;-89
2022/01/22 04:15:45;;;;;;;7.60;3.70;;;1.80;99.90;;;;;;6280030;22;20004;-89
2022/01/22 04:26:52;;;;;;;7.53;3.20;;;1.80;99.90;;;;;;6276802;22;20076;-89
2022/01/22 04:29:34;;;;;;;8.67;4.07;;;1.80;99.90;;;;;;6275069;22;20004;-89
2022/01/22 04:32:06;;;;;;;9.93;3.42;;;1.90;99.90;;;;;;6249807;22;20003;-90
2022/01/22 04:34:35;;;;;;;;;;;1.80;99.90;;;;;;6275064;22;19999;-88
2022/01/22 04:37:39;;;;;;;;;;;;;;;;;;;;;
2022/01/22 04:40:54;;;;;;;6.23;2.97;;;1.90;99.90;;;;;;6274673;22;20090;-88
2022/01/22 04:43:20;;;;;;;8.13;3.77;;;1.90;99.90;;;;;;6222627;22;20039;-89
2022/01/22 04:52:40;;;;;;;8.90;3.47;;;1.80;99.90;;;;;;6277387;22;20078;-89
2022/01/22 04:55:12;;;;;;;7.57;3.17;;;1.90;99.90;;;;;;6275290;22;20000;-88
2022/01/22 04:57:46;;;;;;;;;;;1.80;99.90;;;;;;6276321;22;20004;-89
2022/01/22 05:00:18;;;;;;;9.40;3.93;;;1.90;99.90;;;;;;6274156;22;19899;-89
2022/01/22 05:02:52;;;;;;;8.32;3.30;;;1.80;99.90;;;;;;6274571;22;20459;-88
2022/01/22 05:05:24;;;;;;;9.37;3.67;;;1.80;99.90;;;;;;6274620;22;20007;-89
2022/01/22 05:07:54;;;;;;;7.57;3.00;;;1.80;99.90;;;;;;6274557;22;20462;-88
2022/01/22 05:10:24;;;;;;;8.80;3.50;;;1.90;99.90;;;;;;6278196;22;20712;-89
2022/01/22 05:12:52;;;;;;;13.90;3.67;;;1.80;99.90;;;;;;6275635;22;20038;-88
2022/01/22 05:15:43;;;;;;;6.97;3.40;;;1.80;99.90;;;;;;6276980;22;20083;-89
2022/01/22 05:18:15;;;;;;;7.47;3.37;;;1.90;99.90;;;;;;6300627;22;20008;-89
2022/01/22 05:20:51;;;;;;;9.95;3.85;;;1.80;99.90;;;;;;6275146;22;20025;-89
2022/01/22 05:23:23;;;;;;;8.70;3.40;;;1.90;99.90;;;;;;6275574;22;20014;-88
2022/01/22 05:25:59;;;;;;;7.95;3.45;;;1.80;99.90;;;;;;6274707;22;20011;-90
2022/01/22 05:37:03;;;;;;;10.83;3.93;;;1.90;99.90;;;;;;6276456;22;20018;-89
2022/01/22 05:39:33;;;;;;;6.00;3.00;;;1.90;99.90;;;;;;6275107;22;20008;-89
2022/01/22 05:42:09;;;;;;;7.30;3.40;;;1.90;99.90;;;;;;6274993;22;20461;-89
2022/01/22 05:44:36;;;;;;;10.67;3.90;;;1.90;99.90;;;;;;6273674;22;20442;-90
2022/01/22 05:47:11;;;;;;;9.43;3.80;;;1.90;99.90;;;;;;6273721;22;20043;-89
2022/01/22 05:49:41;;;;;;;7.40;3.47;;;1.90;99.90;;;;;;6272952;22;20460;-89
2022/01/22 05:52:22;;;;;;;6.87;3.20;;;1.90;99.90;;;;;;6273451;22;20342;-89
2022/01/22 06:00:06;;;;;;;8.37;3.60;;;2.00;99.90;;;;;;6277842;22;20033;-89
2022/01/22 06:02:35;;;;;;;8.37;3.40;;;1.90;99.90;;;;;;6275909;22;20000;-90
2022/01/22 06:05:00;;;;;;;8.90;3.20;;;1.90;99.90;;;;;;6274517;22;20008;-90
2022/01/22 06:07:26;;;;;;;7.93;3.07;;;1.90;99.90;;;;;;6275661;22;20010;-90
2022/01/22 06:12:45;;;;;;;8.67;3.67;;;1.90;99.90;;;;;;6286952;22;20000;-90
2022/01/22 06:15:14;;;;;;;9.83;3.63;;;1.90;99.90;;;;;;6275341;22;20030;-90
2022/01/22 06:17:40;;;;;;;9.10;3.70;;;1.90;99.90;;;;;;6275491;22;20073;-91
2022/01/22 06:20:15;;;;;;;8.03;3.50;;;1.90;99.90;;;;;;6272981;22;20012;-90
2022/01/22 06:22:44;;;;;;;9.03;3.50;;;1.90;99.90;;;;;;6274964;22;20453;-89
2022/01/22 06:25:13;;;;;;;7.97;3.10;;;2.00;99.90;;;;;;6274016;22;20008;-90
2022/01/22 06:27:44;;;;;;;7.80;3.53;;;2.00;99.90;;;;;;6274877;22;20031;-90
2022/01/22 06:30:13;;;;;;;8.63;3.53;;;2.00;99.90;;;;;;6275059;22;20019;-90
2022/01/22 06:32:41;;;;;;;10.03;3.90;;;1.90;99.90;;;;;;6275811;22;20000;-90
2022/01/22 06:35:23;;;;;;;7.57;3.70;;;1.90;99.90;;;;;;6274992;22;20319;-91
2022/01/22 06:37:48;;;;;;;10.80;4.25;;;1.90;99.90;;;;;;6275081;22;20095;-90
2022/01/22 06:42:57;;;;;;;9.73;3.60;;;1.90;99.90;;;;;;6285737;22;20015;-89
2022/01/22 06:45:40;;;;;;;9.33;3.60;;;2.00;99.90;;;;;;6276293;22;20010;-90
2022/01/22 06:48:06;;;;;;;9.80;3.93;;;1.90;99.90;;;;;;6277373;22;20012;-89
2022/01/22 06:51:02;;;;;;;11.43;3.93;;;2.00;99.90;;;;;;6276678;22;20057;-88
2022/01/22 06:53:40;;;;;;;9.50;3.47;;;2.00;99.90;;;;;;6279058;22;20007;-90
2022/01/22 06:56:07;;;;;;;6.87;3.47;;;2.00;99.90;;;;;;6277011;22;19992;-90
2022/01/22 06:58:36;;;;;;;11.63;3.43;;;2.00;99.90;;;;;;6275671;22;20004;-89
2022/01/22 07:01:07;;;;;;;9.67;3.50;;;2.00;99.90;;;;;;6274453;22;20000;-89
2022/01/22 07:03:33;;;;;;;10.77;3.67;;;2.00;99.90;;;;;;6275435;22;20440;-89
2022/01/22 07:05:58;;;;;;;10.10;3.33;;;2.00;99.90;;;;;;6273162;22;20015;-89
2022/01/22 07:08:24;;;;;;;10.70;4.27;;;2.00;99.90;;;;;;6273916;22;20338;-90
2022/01/22 07:10:56;;;;;;;7.67;3.23;;;2.10;99.90;;;;;;6303410;22;20483;-90
2022/01/22 07:13:35;;;;;;;9.10;4.40;;;2.00;99.90;;;;;;6276218;22;20000;-90
2022/01/22 07:16:19;;;;;;;7.43;3.60;;;2.00;99.90;;;;;;6279569;22;19995;-90
2022/01/22 07:19:00;;;;;;;11.10;4.23;;;2.00;99.90;;;;;;6275862;22;20004;-89
2022/01/22 07:21:35;;;;;;;10.93;3.77;;;2.00;99.90;;;;;;6283075;22;20004;-91
2022/01/22 07:26:31;;;;;;;11.57;4.13;;;2.00;99.90;;;;;;6278150;22;20033;-90
2022/01/22 07:28:58;;;;;;;14.03;4.17;;;2.00;99.90;;;;;;6273739;22;20008;-90
2022/01/22 07:31:26;;;;;;;11.17;3.93;;;1.90;99.90;;;;;;6274071;22;20042;-90
2022/01/22 07:33:53;;;;;;;10.93;4.20;;;2.00;99.90;;;;;;6275188;22;20394;-89
2022/01/22 07:36:22;;;;;;;12.50;4.20;;;2.00;99.90;;;;;;6273625;22;20204;-89
2022/01/22 07:38:48;;;;;;;11.30;3.50;;;1.90;99.90;;;;;;6274284;22;20090;-91
2022/01/22 07:41:16;;;;;;;10.60;4.27;;;2.00;99.90;;;;;;6274791;22;20426;-90
2022/01/22 07:43:48;;;;;;;10.27;3.27;;;1.90;99.90;;;;;;6274107;22;19999;-91
2022/01/22 07:46:16;;;;;;;8.57;4.03;;;1.90;99.90;;;;;;6275149;22;20434;-91
2022/01/22 07:48:41;;;;;;;8.23;3.33;;;1.90;99.90;;;;;;6273327;22;20486;-90
2022/01/22 07:51:18;;;;;;;9.13;3.90;;;1.80;99.90;;;;;;6273484;22;20000;-90
2022/01/22 07:53:45;;;;;;;13.27;4.80;;;1.80;99.90;;;;;;6282150;22;20007;-91
2022/01/22 07:56:15;;;;;;;9.70;3.80;;;1.90;99.90;;;;;;6278860;22;20000;-90
2022/01/22 07:58:40;;;;;;;9.10;3.10;;;1.90;99.90;;;;;;6275535;22;20434;-91
2022/01/22 08:01:06;;;;;;;8.13;3.27;;;1.90;99.90;;;;;;6275255;22;20007;-90
2022/01/22 08:03:32;;;;;;;10.50;3.90;;;2.00;99.90;;;;;;6275312;22;20003;-90
2022/01/22 08:05:58;;;;;;;9.37;4.27;;;1.90;99.90;;;;;;6270679;22;20014;-89
2022/01/22 08:08:30;;;;;;;9.17;3.83;;;2.10;99.90;;;;;;6273077;22;20090;-91
2022/01/22 08:11:00;;;;;;;10.10;4.10;;;1.90;99.90;;;;;;6301572;22;20000;-91
2022/01/22 08:13:29;;;;;;;12.53;4.33;;;1.90;99.90;;;;;;6276426;22;20388;-91
2022/01/22 08:15:55;;;;;;;8.93;3.93;;;1.90;99.90;;;;;;6274967;22;20011;-91
2022/01/22 08:18:21;;;;;;;10.23;4.13;;;1.90;99.90;;;;;;6276320;22;20481;-90
2022/01/22 08:20:47;;;;;;;9.70;4.00;;;1.80;99.90;;;;;;6274732;22;20008;-91
2022/01/22 08:23:19;;;;;;;8.90;4.00;;;1.80;99.90;;;;;;6277427;22;19999;-89
2022/01/22 08:25:46;;;;;;;;;;;1.80;99.90;;;;;;6278118;22;20004;-91
2022/01/22 08:31:19;;;;;;;12.57;4.90;;;1.80;99.90;;;;;;6272975;22;20019;-90
2022/01/22 08:36:31;;;;;;;13.90;4.67;;;1.70;99.90;;;;;;6279561;22;19909;-89
2022/01/22 08:38:57;;;;;;;10.97;4.47;;;1.80;99.90;;;;;;6277108;22;20029;-89
2022/01/22 08:41:23;;;;;;;10.03;4.37;;;1.80;99.90;;;;;;6277109;22;20555;-90
2022/01/22 08:43:50;;;;;;;12.37;4.57;;;1.80;99.90;;;;;;6278892;22;20000;-90
2022/01/22 08:46:17;;;;;;;14.87;4.80;;;1.80;99.90;;;;;;6278165;22;20477;-91
2022/01/22 08:48:42;;;;;;;12.30;4.63;;;1.70;99.90;;;;;;6275567;22;20011;-91
2022/01/22 08:51:09;;;;;;;13.13;4.27;;;1.80;99.90;;;;;;6275300;22;20372;-90
2022/01/22 08:53:45;;;;;;;8.83;3.50;;;1.60;99.90;;;;;;6276049;22;20053;-90
2022/01/22 08:56:10;;;;;;;9.70;3.80;;;1.80;99.90;;;;;;6276048;22;20007;-91
2022/01/22 08:58:36;;;;;;;9.40;4.20;;;1.70;99.90;;;;;;6275054;22;20012;-90
2022/01/22 09:01:07;;;;;;;9.03;4.30;;;1.70;99.90;;;;;;6275954;22;20346;-90
2022/01/22 09:03:34;;;;;;;10.13;4.50;;;1.70;99.90;;;;;;6274308;22;20059;-90
2022/01/22 09:06:11;;;;;;;9.60;4.50;;;1.70;99.90;;;;;;6274433;22;20003;-91
2022/01/22 09:08:42;;;;;;;8.27;3.97;;;1.70;99.90;;;;;;6274638;22;20011;-91
2022/01/22 09:11:11;;;;;;;9.57;4.33;;;1.70;99.90;;;;;;6274574;22;20004;-91
2022/01/22 09:13:37;;;;;;;12.87;4.63;;;1.70;99.90;;;;;;6276893;22;20238;-91
2022/01/22 09:16:21;;;;;;;13.07;4.50;;;1.70;99.90;;;;;;6277933;22;20010;-91
2022/01/22 09:18:51;;;;;;;10.53;4.87;;;1.80;99.90;;;;;;6275812;22;20361;-91
2022/01/22 09:21:25;;;;;;;9.97;4.73;;;1.80;99.90;;;;;;6272516;22;20016;-91
2022/01/22 09:24:01;;;;;;;11.67;4.83;;;1.80;99.90;;;;;;6277304;22;20010;-92
2022/01/22 09:26:28;;;;;;;11.83;4.60;;;1.80;99.90;;;;;;6252609;22;20155;-91
2022/01/22 09:28:57;;;;;;;12.50;4.90;;;1.90;99.90;;;;;;6274359;22;20003;-91
2022/01/22 09:31:35;;;;;;;9.83;4.50;;;1.90;99.90;;;;;;6276238;22;20387;-92
2022/01/22 09:34:06;;;;;;;10.17;4.67;;;1.90;99.90;;;;;;6276551;22;20065;-91
2022/01/22 09:36:35;;;;;;;12.20;4.80;;;2.00;99.90;;;;;;6276367;22;20035;-91
2022/01/22 09:39:03;;;;;;;13.80;4.60;;;1.90;99.90;;;;;;6276161;22;20008;-91
2022/01/22 09:41:30;;;;;;;10.77;4.57;;;2.00;99.90;;;;;;6280752;22;20473;-91
2022/01/22 09:43:59;;;;;;;10.77;5.03;;;2.00;99.90;;;;;;6278763;22;20000;-91
2022/01/22 09:46:28;;;;;;;11.20;4.83;;;2.00;99.90;;;;;;6276543;22;20004;-91
2022/01/22 09:48:55;;;;;;;11.37;5.00;;;2.10;99.90;;;;;;6276388;22;20004;-90
2022/01/22 09:51:21;;;;;;;11.50;4.97;;;2.20;99.90;;;;;;6276856;22;20073;-92
2022/01/22 09:53:47;;;;;;;10.97;4.37;;;2.10;99.90;;;;;;6280331;22;20405;-90
2022/01/22 09:56:18;;;;;;;11.73;5.30;;;2.20;99.90;;;;;;6277284;22;20019;-91
2022/01/22 09:58:43;;;;;;;14.73;5.33;;;2.20;99.90;;;;;;6276781;22;20010;-90
2022/01/22 10:01:24;;;;;;;13.37;4.90;;;2.30;99.90;;;;;;6277711;22;20007;-90
2022/01/22 10:03:53;;;;;;;10.57;4.93;;;2.30;99.90;;;;;;6297499;22;20000;-91
2022/01/22 10:06:21;;;;;;;15.57;4.97;;;2.30;99.90;;;;;;6299964;22;20000;-91
2022/01/22 10:08:48;;;;;;;12.23;4.97;;;2.40;99.90;;;;;;6300177;22;20003;-91
2022/01/22 10:11:26;;;;;;;14.77;5.50;;;2.40;99.90;;;;;;6296611;22;20019;-90
2022/01/22 10:13:54;;;;;;;14.10;4.97;;;2.40;99.90;;;;;;6298627;22;20000;-90
2022/01/22 10:16:30;;;;;;;11.93;4.90;;;2.40;99.90;;;;;;6283975;22;19988;-91
2022/01/22 10:19:19;;;;;;;12.07;4.77;;;2.40;99.90;;;;;;6273991;22;20000;-90
2022/01/22 10:21:49;;;;;;;11.17;4.60;;;2.50;99.90;;;;;;6273821;22;20090;-90
2022/01/22 10:24:44;;;;;;;18.20;5.00;;;2.40;99.90;;;;;;6302524;22;20000;-91
2022/01/22 10:27:29;;;;;;;12.33;4.03;;;2.50;99.90;;;;;;6276064;22;20008;-90
2022/01/22 10:30:04;;;;;;;9.70;4.87;;;2.50;99.90;;;;;;6276272;22;20711;-91
2022/01/22 10:35:11;;;;;;;7.10;3.72;;;2.60;99.90;;;;;;6277841;22;20031;-90
2022/01/22 10:37:37;;;;;;;11.53;4.50;;;2.60;99.90;;;;;;6275675;22;20024;-90
2022/01/22 10:40:23;;;;;;;11.63;4.07;;;2.70;99.90;;;;;;6275104;22;20030;-91
2022/01/22 10:42:52;;;;;;;11.10;4.47;;;2.70;99.90;;;;;;6276153;22;19999;-91
2022/01/22 10:45:25;;;;;;;8.63;3.87;;;2.70;99.90;;;;;;6276467;22;20027;-89
2022/01/22 10:48:20;;;;;;;12.70;4.47;;;2.70;99.90;;;;;;6275048;22;20397;-90
2022/01/22 10:50:58;;;;;;;10.13;4.10;;;2.70;99.90;;;;;;6277420;22;19996;-91
2022/01/22 10:53:45;;;;;;;8.57;3.97;;;2.70;99.90;;;;;;6276491;22;20373;-91
2022/01/22 10:56:19;;;;;;;9.70;4.10;;;2.70;99.90;;;;;;6276400;22;20003;-91
2022/01/22 10:59:09;;;;;;;9.30;4.60;;;2.80;99.90;;;;;;6276290;22;20426;-91
2022/01/22 11:01:47;;;;;;;10.47;4.40;;;2.90;99.90;;;;;;6276360;22;20079;-91
2022/01/22 11:04:18;;;;;;;10.43;4.10;;;2.90;99.90;;;;;;6301540;22;20000;-91
2022/01/22 11:11:09;;;;;;;;;;;;;;;;;;;;;
2022/01/22 11:21:28;;;;;;;12.07;4.07;;;3.00;99.90;;;;;;6300841;22;20022;-91
2022/01/22 11:24:01;;;;;;;;;;;3.10;99.90;;;;;;6282083;22;20421;-91
2022/01/22 11:26:30;;;;;;;12.23;4.10;;;3.10;99.90;;;;;;6307945;22;19902;-91
2022/01/22 11:29:03;;;;;;;8.10;3.97;;;3.30;99.90;;;;;;6281378;22;20077;-91
2022/01/22 11:31:45;;;;;;;12.80;4.87;;;3.30;99.90;;;;;;6280258;22;20003;-91
2022/01/22 11:34:14;;;;;;;8.47;3.80;;;3.30;99.90;;;;;;6282129;22;20003;-91
2022/01/22 11:37:01;;;;;;;17.93;4.20;;;3.30;99.90;;;;;;6281608;22;20003;-91
2022/01/22 11:39:35;;;;;;;8.30;3.70;;;3.40;99.90;;;;;;6281113;22;20076;-91
2022/01/22 11:42:01;;;;;;;8.30;4.23;;;3.40;99.90;;;;;;6282080;22;20019;-92
2022/01/22 11:44:45;;;;;;;8.57;3.80;;;3.40;99.90;;;;;;6281901;22;20003;-91
2022/01/22 11:47:26;;;;;;;7.47;3.17;;;3.50;99.90;;;;;;6283104;22;20010;-91
2022/01/22 11:50:09;;;;;;;9.20;4.07;;;3.60;99.90;;;;;;6285179;22;20252;-91
2022/01/22 11:52:42;;;;;;;12.77;3.60;;;3.70;99.90;;;;;;6284209;22;19995;-91
2022/01/22 11:55:14;;;;;;;6.53;3.13;;;3.70;99.90;;;;;;6284840;22;20003;-91
2022/01/22 11:58:06;;;;;;;7.57;3.50;;;3.70;99.90;;;;;;6283575;22;20614;-92
2022/01/22 12:01:08;;;;;;;6.67;3.20;;;3.70;99.90;;;;;;6282138;22;20003;-91
2022/01/22 12:03:34;;;;;;;;;;;3.80;99.90;;;;;;6281762;22;20438;-91
2022/01/22 12:06:08;;;;;;;10.17;3.57;;;3.80;99.90;;;;;;6308167;22;19899;-91
2022/01/22 12:09:26;;;;;;;8.10;3.93;;;3.80;99.90;;;;;;6281188;22;20007;-92
2022/01/22 12:14:58;;;;;;;6.77;3.17;;;3.80;99.90;;;;;;6308753;22;20066;-91
2022/01/22 12:17:55;;;;;;;8.53;3.60;;;3.80;99.90;;;;;;6282676;22;20078;-92
2022/01/22 12:23:07;;;;;;;8.73;2.60;;;3.70;99.90;;;;;;6307572;22;20045;-90
2022/01/22 12:25:36;;;;;;;9.03;3.10;;;3.60;99.90;;;;;;6280189;22;20011;-90
2022/01/22 12:28:32;;;;;;;8.97;3.00;;;3.60;99.90;;;;;;6304923;22;20050;-90
2022/01/22 12:31:19;;;;;;;6.83;2.97;;;3.60;99.90;;;;;;6279723;22;19999;-90
2022/01/22 12:33:54;;;;;;;6.87;2.80;;;3.60;99.90;;;;;;6307175;22;20002;-89
2022/01/22 12:36:40;;;;;;;7.43;2.50;;;3.50;99.90;;;;;;6279929;22;20023;-90
2022/01/22 12:39:27;;;;;;;8.23;3.10;;;3.60;99.90;;;;;;6279343;22;20010;-90
2022/01/22 12:41:57;;;;;;;8.40;2.83;;;3.60;99.90;;;;;;6280306;22;20003;-89
2022/01/22 12:44:33;;;;;;;7.80;3.30;;;3.60;99.90;;;;;;6280664;22;20006;-90
2022/01/22 12:47:05;;;;;;;6.17;3.00;;;3.60;99.90;;;;;;6278615;22;20003;-91
2022/01/22 12:49:36;;;;;;;7.72;2.78;;;3.60;99.90;;;;;;6278509;22;20003;-90
2022/01/22 12:52:34;;;;;;;8.20;2.73;;;3.60;99.90;;;;;;6285287;22;20032;-89
2022/01/22 12:55:19;;;;;;;3.87;2.00;;;3.60;99.90;;;;;;6280636;22;20124;-90
2022/01/22 12:57:48;;;;;;;4.17;1.97;;;3.60;99.90;;;;;;6281168;22;20078;-90
2022/01/22 13:00:18;;;;;;;4.53;2.00;;;3.60;99.90;;;;;;6279870;22;20007;-90
2022/01/22 13:02:46;;;;;;;4.80;2.17;;;3.60;99.90;;;;;;6280734;22;20022;-88
2022/01/22 13:05:16;;;;;;;4.87;2.20;;;3.50;99.90;;;;;;6279671;22;20007;-90
2022/01/22 13:07:55;;;;;;;5.57;2.10;;;3.60;99.90;;;;;;6279954;22;20012;-90
2022/01/22 13:10:27;;;;;;;4.67;1.80;;;3.70;99.90;;;;;;6279491;22;20746;-90
2022/01/22 13:12:56;;;;;;;4.57;1.80;;;3.60;99.90;;;;;;6280099;22;20437;-90
2022/01/22 13:15:27;;;;;;;4.23;1.93;;;3.70;99.90;;;;;;6280588;22;20011;-90
2022/01/22 13:17:59;;;;;;;4.80;1.70;;;3.70;99.90;;;;;;6306840;22;20031;-90
2022/01/22 13:20:28;;;;;;;3.83;1.70;;;3.80;99.90;;;;;;6274971;22;20069;-89
2022/01/22 13:23:17;;;;;;;4.00;1.60;;;3.80;99.90;;;;;;6280294;22;20030;-90
2022/01/22 13:25:43;;;;;;;5.55;2.30;;;3.80;99.90;;;;;;6277753;22;20037;-90
2022/01/22 13:28:13;;;;;;;6.80;3.10;;;3.80;99.90;;;;;;6278595;22;20007;-89
2022/01/22 13:30:53;;;;;;;4.07;1.73;;;3.80;99.90;;;;;;6278526;22;20437;-89
2022/01/22 13:33:52;;;;;;;5.80;2.37;;;3.80;99.90;;;;;;6255755;22;20007;-90
2022/01/22 13:47:46;;;;;;;4.53;1.83;;;3.80;99.90;;;;;;6297723;22;20017;-89
2022/01/22 13:50:21;;;;;;;4.73;1.90;;;3.80;99.90;;;;;;6279536;22;20034;-90
2022/01/22 13:52:53;;;;;;;4.80;2.03;;;3.90;99.90;;;;;;6279405;22;20083;-89
2022/01/22 13:56:12;;;;;;;;;;;;;;;;;;;;;
2022/01/22 13:58:43;;;;;;;6.67;2.23;;;4.00;99.90;;;;;;6304810;22;20074;-90
2022/01/22 14:04:24;;;;;;;5.63;2.17;;;3.90;99.90;;;;;;6228151;22;20504;-90
2022/01/22 14:06:59;;;;;;;3.67;1.97;;;3.90;99.90;;;;;;6279475;22;20017;-91
2022/01/22 14:09:27;;;;;;;7.67;2.03;;;3.90;99.90;;;;;;6279723;22;20006;-89
2022/01/22 14:12:09;;;;;;;5.00;2.03;;;3.90;99.90;;;;;;6279211;22;20000;-88
2022/01/22 14:14:58;;;;;;;5.53;2.30;;;3.80;99.90;;;;;;6278972;22;20003;-90
2022/01/22 14:20:56;;;;;;;7.60;2.60;;;3.90;99.90;;;;;;6308123;22;20075;-90
2022/01/22 14:23:25;;;;;;;5.33;2.80;;;4.00;99.90;;;;;;6306388;22;20026;-90
2022/01/22 14:26:12;;;;;;;7.03;2.43;;;4.00;99.90;;;;;;6307036;22;20081;-90
2022/01/22 14:29:06;;;;;;;6.60;2.77;;;3.90;99.90;;;;;;6307277;22;20007;-90
2022/01/22 14:31:44;;;;;;;6.57;2.63;;;3.90;99.90;;;;;;6281679;22;20003;-90
2022/01/22 14:34:13;;;;;;;5.93;2.43;;;3.90;99.90;;;;;;6279766;22;20010;-91
2022/01/22 14:36:43;;;;;;;4.60;1.97;;;3.90;99.90;;;;;;6280657;22;20094;-90
2022/01/22 14:44:49;;;;;;;5.00;2.40;;;3.80;99.90;;;;;;6305597;22;20011;-88
2022/01/22 14:47:25;;;;;;;5.80;1.90;;;3.80;99.90;;;;;;6278929;22;20004;-89
2022/01/22 14:50:05;;;;;;;4.80;2.27;;;3.70;99.90;;;;;;6278701;22;19995;-89
2022/01/22 14:52:33;;;;;;;6.03;2.53;;;3.70;99.90;;;;;;6305258;22;20076;-89
2022/01/22 14:55:03;;;;;;;6.70;2.90;;;3.70;99.90;;;;;;6279312;22;19999;-90
2022/01/22 14:57:46;;;;;;;5.27;2.23;;;3.70;99.90;;;;;;6279261;22;20290;-89
2022/01/22 15:00:17;;;;;;;9.17;2.93;;;3.60;99.90;;;;;;6303069;22;20034;-89
2022/01/22 15:02:46;;;;;;;6.73;3.13;;;3.60;99.90;;;;;;6279734;22;20003;-90
2022/01/22 15:05:15;;;;;;;8.07;3.73;;;3.60;99.90;;;;;;6279669;22;20010;-90
2022/01/22 15:07:44;;;;;;;5.17;2.70;;;3.60;99.90;;;;;;6280187;22;20003;-90
2022/01/22 15:10:14;;;;;;;9.20;3.27;;;3.60;99.90;;;;;;6279712;22;20011;-90
2022/01/22 15:12:44;;;;;;;5.90;2.67;;;3.60;99.90;;;;;;6280834;22;19999;-90
2022/01/22 15:15:21;;;;;;;7.20;3.10;;;3.60;99.90;;;;;;6280948;22;19999;-90
2022/01/22 15:20:22;;;;;;;7.70;3.10;;;3.60;99.90;;;;;;6316407;22;20003;-91
2022/01/22 15:22:48;;;;;;;6.87;3.13;;;3.50;99.90;;;;;;6278611;22;20015;-91
2022/01/22 15:25:17;;;;;;;9.47;3.77;;;3.60;99.90;;;;;;6279919;22;20304;-90
2022/01/22 15:28:05;;;;;;;8.60;3.70;;;3.50;99.90;;;;;;6279618;22;20010;-89
2022/01/22 15:30:35;;;;;;;8.33;3.60;;;3.50;99.90;;;;;;6279090;22;20000;-90
2022/01/22 15:33:17;;;;;;;8.47;3.60;;;3.50;99.90;;;;;;6284318;22;20003;-90
2022/01/22 15:35:44;;;;;;;6.93;3.77;;;3.40;99.90;;;;;;6280814;22;20007;-90
2022/01/22 15:38:12;;;;;;;8.73;4.20;;;3.50;99.90;;;;;;6279948;22;20006;-90
2022/01/22 15:40:41;;;;;;;10.47;4.33;;;3.50;99.90;;;;;;6279438;22;20014;-91
2022/01/22 15:43:14;;;;;;;7.60;4.20;;;3.40;99.90;;;;;;6279384;22;20010;-90
2022/01/22 15:45:43;;;;;;;11.87;4.30;;;3.40;99.90;;;;;;6279862;22;20034;-90
2022/01/22 15:48:12;;;;;;;10.63;4.63;;;3.40;99.90;;;;;;6278875;22;20010;-91
2022/01/22 15:50:40;;;;;;;9.43;3.53;;;3.50;99.90;;;;;;6279687;22;20216;-90
2022/01/22 15:53:15;;;;;;;7.93;4.03;;;3.40;99.90;;;;;;6279308;22;20007;-90
2022/01/22 15:55:47;;;;;;;8.57;3.07;;;3.50;99.90;;;;;;6277342;22;19999;-87
2022/01/22 15:58:14;;;;;;;9.33;3.80;;;3.40;99.90;;;;;;6276866;22;20010;-87
2022/01/22 16:00:43;;;;;;;10.07;4.07;;;3.40;99.90;;;;;;6277402;22;20008;-87
2022/01/22 16:03:14;;;;;;;10.23;3.73;;;3.40;99.90;;;;;;6278252;22;20048;-86